• Join FlightAware (Why Join?)
  • Login
  • US Flag 
10:55PM EDT


 

Airport Tracker/Info


-or-


 

Live Flight TrackerFlight Track Log ✈ FFT403 ✈ 08-May-2013 ✈ KMDW - KDEN

Flight Track Log - Related Links

Times and Time Zones

All times are in EDT time to prevent confusion due to time zone crossing. See the FFT403 flight status page for this flight to view local times or setup timezone preferences in your user account.

Time Position Orientation Groundspeed Altitude Reporting Facility
EDT Latitude Longitude Course Direction KTS MPH feet Rate Location/Type
07:13AM 41.7500 -87.8167 251° West 183 211 2,900  Level Chicago TRACON
07:14AM 41.7333 -87.8833 251° West 257 296 4,400 2,220 Climbing Chicago TRACON
07:15AM 41.7281 -87.9578 265° West 263 303 6,600 3,000 Climbing Chicago Center
07:16AM 41.7258 -88.0550 268° West 286 329 9,800 2,580 Climbing Chicago Center
07:17AM 41.7739 -88.1408 307° West 289 333 12,000 1,500 Climbing Chicago Center
07:18AM 41.7825 -88.2497 276° West 306 352 12,900 1,800 Climbing Chicago Center
07:19AM 41.7772 -88.3992 267° West 336 387 15,700 2,580 Climbing Chicago Center
07:20AM 41.7706 -88.5300 266° West 352 405 18,200 2,280 Climbing Chicago Center
07:21AM 41.7642 -88.6658 266° West 366 421 20,400 2,160 Climbing Chicago Center
07:22AM 41.7575 -88.8025 266° West 371 427 22,600 1,920 Climbing Chicago Center
07:23AM 41.7519 -88.9447 267° West 382 440 24,400 1,680 Climbing Chicago Center
07:24AM 41.7472 -89.0939 268° West 399 459 26,100 1,560 Climbing Chicago Center
07:25AM 41.7425 -89.2469 268° West 419 482 27,600 1,620 Climbing Chicago Center
07:26AM 41.7361 -89.4325 267° West 421 484 29,500 1,560 Climbing Chicago Center
07:27AM 41.7311 -89.5856 268° West 429 494 30,900 1,380 Climbing Chicago Center
07:28AM 41.7250 -89.7417 267° West 427 491 32,400 1,440 Climbing Chicago Center
07:29AM 41.7186 -89.9000 267° West 428 493 33,900 1,260 Climbing Chicago Center
07:30AM 41.7128 -90.0553 267° West 422 486 35,100 1,200 Climbing Chicago Center
07:31AM 41.7061 -90.2108 267° West 421 484 36,400 1,260 Climbing Chicago Center
07:32AM 41.6969 -90.3961 266° West 419 482 37,700 780 Climbing Chicago Center
07:33AM 41.6900 -90.5467 267° West 409 471 38,000 120 Climbing Chicago Center
07:34AM 41.6836 -90.6892 267° West 411 473 38,000  Level Chicago Center
07:35AM 41.6764 -90.8417 266° West 413 475 38,000  Level Chicago Center
07:36AM 41.6683 -90.9967 266° West 419 482 38,000  Level Chicago Center
07:37AM 41.6592 -91.1808 266° West 418 481 38,000  Level Chicago Center
07:38AM 41.6511 -91.3339 266° West 416 479 38,000  Level Chicago Center
07:39AM 41.6433 -91.4886 266° West 418 481 38,000 -60 Level Chicago Center
07:40AM 41.6339 -91.6408 265° West 415 478 37,900 -60 Descending Chicago Center
07:41AM 41.6258 -91.7900 266° West 407 468 37,900  Level Chicago Center
07:42AM 41.6172 -91.9408 266° West 410 472 37,900  Level Chicago Center
07:44AM 41.6086 -92.0881 266° West 404 465 38,000  Climbing Chicago Center
07:45AM 41.5972 -92.2694 265° West 408 470 38,000  Level Chicago Center
07:46AM 41.5886 -92.4208 266° West 411 473 38,000  Level Chicago Center
07:47AM 41.5783 -92.5708 265° West 409 471 38,000  Level Chicago Center
07:48AM 41.5683 -92.7256 265° West 418 481 38,000  Level Chicago Center
07:48AM 41.5656 -92.7728 266° West 415 478 38,000  Level Minneapolis Center
07:49AM 41.5556 -92.9242 265° West 415 478 38,000  Level Minneapolis Center
07:50AM 41.5450 -93.0728 265° West 411 473 38,000  Level Minneapolis Center
07:51AM 41.5356 -93.2239 265° West 411 473 38,000  Level Minneapolis Center
07:52AM 41.5219 -93.4031 264° West 410 472 38,000  Level Minneapolis Center
07:53AM 41.5111 -93.5506 264° West 406 467 38,000  Level Minneapolis Center
07:54AM 41.5019 -93.6986 265° West 404 465 38,000  Level Minneapolis Center
07:55AM 41.4917 -93.8500 265° West 411 473 38,000  Level Minneapolis Center
07:56AM 41.4789 -94.0006 264° West 412 474 38,000  Level Minneapolis Center
07:57AM 41.4681 -94.1517 265° West 413 475 38,000  Level Minneapolis Center
07:58AM 41.4497 -94.3322 262° West 413 475 38,000  Level Minneapolis Center
07:59AM 41.4372 -94.4839 264° West 411 473 38,000 -60 Level Minneapolis Center
08:00AM 41.4283 -94.6347 266° West 410 472 37,900 -60 Descending Minneapolis Center
08:01AM 41.4158 -94.7853 264° West 410 472 37,900  Level Minneapolis Center
08:02AM 41.4022 -94.9361 263° West 411 473 38,000  Climbing Minneapolis Center
08:03AM 41.3936 -95.0547 265° West 405 466 38,000  Level Minneapolis Center
08:04AM 41.3778 -95.2369 263° West 411 473 38,000  Level Minneapolis Center
08:05AM 41.3636 -95.3878 263° West 411 473 38,000  Level Minneapolis Center
08:06AM 41.3500 -95.5372 263° West 410 472 38,000  Level Minneapolis Center
08:07AM 41.3361 -95.6894 263° West 410 472 38,000  Level Minneapolis Center
08:08AM 41.3225 -95.8683 264° West 406 467 38,000  Level Minneapolis Center
08:09AM 41.3067 -96.0164 262° West 405 466 38,000  Level Minneapolis Center
08:10AM 41.2936 -96.1636 263° West 404 465 38,000  Level Minneapolis Center
08:11AM 41.2794 -96.3108 263° West 401 461 38,000  Level Minneapolis Center
08:12AM 41.2625 -96.4683 262° West 400 460 38,000 -60 Level Minneapolis Center
08:13AM 41.2478 -96.6161 263° West 402 463 37,900  Descending Minneapolis Center
08:14AM 41.2328 -96.7622 262° West 401 461 38,000  Climbing Minneapolis Center
08:16AM 41.2178 -96.9097 262° West 402 463 38,000  Level Minneapolis Center
08:17AM 41.2022 -97.0561 262° West 401 461 38,000 -60 Level Minneapolis Center
08:18AM 41.1861 -97.2036 262° West 402 463 37,900  Descending Minneapolis Center
08:19AM 41.1714 -97.3511 262° West 404 465 38,000  Climbing Minneapolis Center
08:20AM 41.1533 -97.5189 262° West 406 467 38,000  Level Minneapolis Center
08:21AM 41.1344 -97.6967 262° West 405 466 38,000 -60 Level Minneapolis Center
08:23AM 41.1019 -97.9906 262° West 402 463 37,900 -60 Descending Denver Center
08:24AM 41.0853 -98.1361 261° West 401 461 37,900  Level Minneapolis Center
08:25AM 41.0683 -98.2842 261° West 403 464 38,000  Climbing Minneapolis Center
08:26AM 41.0514 -98.4386 262° West 403 464 38,000  Level Minneapolis Center
08:27AM 41.0353 -98.5844 262° West 401 461 38,000 -60 Level Minneapolis Center
08:28AM 41.0197 -98.7289 262° West 398 458 37,900 -60 Descending Minneapolis Center
08:29AM 40.9997 -98.9019 261° West 397 457 37,900  Level Minneapolis Center
08:30AM 40.9833 -99.0478 262° West 399 459 38,000  Climbing Minneapolis Center
08:31AM 40.9667 -99.1956 262° West 397 457 38,000  Level Denver Center
08:32AM 40.9494 -99.3397 261° West 397 457 38,000  Level Denver Center
08:33AM 40.9328 -99.4850 261° West 397 457 38,000  Level Denver Center
08:34AM 40.9150 -99.6292 261° West 398 458 38,000  Level Denver Center
08:35AM 40.9017 -99.7442 261° West 397 457 38,000  Level Denver Center
08:36AM 40.8764 -99.9444 261° West 396 456 38,000  Level Denver Center
08:37AM 40.8597 -100.0808 261° West 394 453 38,000  Level Denver Center
08:39AM 40.8419 -100.2175 260° West 394 453 38,000  Level Denver Center
08:40AM 40.8194 -100.4003 261° West 396 456 38,000  Level Denver Center
08:41AM 40.7989 -100.5606 260° West 396 456 38,000  Level Denver Center
08:42AM 40.7828 -100.6919 261° West 400 460 38,000  Level Denver Center
08:43AM 40.7511 -100.8697 257° West 405 466 38,000  Level Denver Center
08:44AM 40.7286 -101.0097 258° West 405 466 38,000  Level Denver Center
08:45AM 40.7008 -101.1744 258° West 411 473 38,000  Level Denver Center
08:46AM 40.6756 -101.3147 257° West 411 473 38,000  Level Denver Center
08:47AM 40.6511 -101.4556 257° West 412 474 38,000  Level Denver Center
08:48AM 40.6186 -101.6436 257° West 412 474 38,000  Level Denver Center
08:49AM 40.5964 -101.7597 256° West 413 475 38,000  Level Denver Center
08:50AM 40.5628 -101.9472 257° West 413 475 38,000 -60 Level Denver Center
08:51AM 40.5364 -102.0864 256° West 411 473 37,900 -60 Descending Denver Center
08:52AM 40.5106 -102.2250 256° West 408 470 37,900  Level Denver Center
08:53AM 40.4803 -102.3881 256° West 411 473 37,900 -1,080 Level Denver Center
08:54AM 40.4550 -102.5306 257° West 416 479 35,800 -2,760 Descending Denver Center
08:55AM 40.4239 -102.6925 256° West 424 488 32,400 -3,060 Descending Denver Center
08:56AM 40.3953 -102.8450 256° West 427 491 29,600 -2,460 Descending Denver Center
08:57AM 40.3672 -102.9922 256° West 414 476 27,400 -2,160 Descending Denver Center
08:58AM 40.3403 -103.1322 256° West 396 456 25,300 -2,040 Descending Denver Center
08:59AM 40.3150 -103.2658 256° West 379 436 23,300 -1,980 Descending Denver Center
09:00AM 40.2900 -103.3981 256° West 373 429 21,300 -1,620 Descending Denver Center
09:01AM 40.2644 -103.5244 255° West 358 412 20,100 -1,200 Descending Denver Center
09:02AM 40.2394 -103.6528 256° West 361 415 18,900 -1,200 Descending Denver Center
09:03AM 40.2153 -103.7861 257° West 363 418 17,700 -1,260 Descending Denver Center
09:04AM 40.1894 -103.9019 254° West 330 380 16,400 -1,320 Descending Denver Center
09:05AM 40.1719 -103.9967 256° West 319 367 15,100 -1,560 Descending Denver Center
09:06AM 40.1294 -104.1169 245° Southwest 310 357 13,300 -1,680 Descending Denver Center
09:07AM 40.0500 -104.1542 200° South 306 352 11,800 -1,260 Descending Denver Center
09:09AM 39.9661 -104.2128 208° Southwest 283 326 10,500 -960 Descending Denver Center
09:10AM 39.9389 -104.3011 248° West 261 300 9,700 -1,020 Descending Denver Center
09:11AM 39.9128 -104.3853 248° West 253 291 8,500 -1,200 Descending Denver Center
09:12AM 39.8833 -104.4667 245° Southwest 244 281 7,500 -1,080 Descending Denver TRACON
09:13AM 39.8833 -104.5333 270° West 209 241 6,500 -900 Descending Denver TRACON
09:13AM 39.8833 -104.5833 270° West 159 183 5,800 -540 Descending Denver TRACON
09:15AM 39.8775 -104.6483 263° West 123 142 5,400 -360 Descending Denver Center
09:17AM 39.8500 -104.6667 190° South  Level FlightAware Approximate
09:24AM 39.8617 -104.6732 190° South  Level Estimated
09:25AM 39.8617 -104.6732 190° South  Level Estimated